Time;durP1;ratioP1;P1;durP2;ratioP2;P2;SDS_P1;SDS_P2;PMS_P1;PMS_P2;Temp;Humidity;BMP_temperature;BMP_pressure;BME280_temperature;BME280_humidity;BME280_pressure;Samples;Min_cycle;Max_cycle;Signal;HPM_P1;HPM_P2
2023/09/28 00:01:56;;;;;;;0.10;0.10;;;;;;;16.15;77.49;99448.56;7368772;19;20027;-62
2023/09/28 00:04:21;;;;;;;0.10;0.10;;;;;;;16.09;77.50;99449.81;7368969;19;20007;-62
2023/09/28 00:06:46;;;;;;;0.10;0.10;;;;;;;16.06;77.74;99475.50;7368869;19;20514;-61
2023/09/28 00:09:12;;;;;;;0.10;0.10;;;;;;;15.93;77.59;99474.63;7365638;19;20007;-61
2023/09/28 00:11:37;;;;;;;0.10;0.10;;;;;;;15.99;77.63;99474.22;7367230;19;20026;-62
2023/09/28 00:14:04;;;;;;;0.10;0.10;;;;;;;15.97;77.69;99492.75;7363011;19;20006;-62
2023/09/28 00:16:29;;;;;;;0.10;0.10;;;;;;;15.93;77.28;99501.78;7371877;19;20018;-61
2023/09/28 00:18:55;;;;;;;0.10;0.10;;;;;;;15.94;77.38;99510.53;7366485;19;20044;-62
2023/09/28 00:21:21;;;;;;;0.08;0.08;;;;;;;15.91;77.40;99513.34;7363140;19;20011;-61
2023/09/28 00:23:46;;;;;;;0.08;0.08;;;;;;;15.86;77.46;99525.97;7367827;19;20010;-61
2023/09/28 00:26:12;;;;;;;0.10;0.10;;;;;;;15.70;77.38;99505.88;7363424;19;20006;-61
2023/09/28 00:28:37;;;;;;;0.00;0.00;;;;;;;15.82;77.44;99531.44;7364629;19;20078;-61
2023/09/28 00:31:05;;;;;;;0.10;0.10;;;;;;;15.66;77.57;99519.31;7365928;19;20078;-61
2023/09/28 00:33:30;;;;;;;;;;;;;;;15.83;77.78;99542.81;7368512;19;20002;-61
2023/09/28 00:35:56;;;;;;;0.10;0.10;;;;;;;15.78;77.68;99550.16;7366786;19;20721;-61
2023/09/28 00:38:21;;;;;;;0.10;0.10;;;;;;;15.76;77.41;99552.88;7363643;19;20003;-61
2023/09/28 00:40:46;;;;;;;0.10;0.10;;;;;;;15.73;77.66;99576.75;7367807;19;20015;-61
2023/09/28 00:43:12;;;;;;;0.10;0.10;;;;;;;15.68;78.08;99586.72;7366084;19;20014;-61
2023/09/28 00:45:38;;;;;;;0.10;0.10;;;;;;;15.61;78.14;99602.94;7364570;19;20018;-61
2023/09/28 00:48:06;;;;;;;0.10;0.10;;;;;;;15.66;78.04;99633.34;7356930;19;20010;-62
2023/09/28 00:50:32;;;;;;;0.10;0.10;;;;;;;15.56;77.79;99621.63;7368498;19;20034;-61
2023/09/28 00:52:59;;;;;;;0.10;0.10;;;;;;;15.62;78.28;99666.03;7361821;19;20022;-61
2023/09/28 00:55:27;;;;;;;0.10;0.10;;;;;;;15.56;78.14;99683.03;7362242;19;20007;-61
2023/09/28 00:57:57;;;;;;;;;;;;;;;15.64;78.01;99679.13;7369201;19;20006;-61
2023/09/28 01:00:29;;;;;;;0.10;0.10;;;;;;;15.60;77.93;99696.81;7360833;19;20407;-62
2023/09/28 01:02:57;;;;;;;0.10;0.10;;;;;;;15.58;78.30;99701.34;7363565;19;20014;-61
2023/09/28 01:05:33;;;;;;;;;;;;;;;15.60;78.05;99715.25;7371897;19;20007;-61
2023/09/28 01:08:06;;;;;;;0.10;0.10;;;;;;;15.56;77.68;99724.25;7355200;19;19934;-61
2023/09/28 01:10:35;;;;;;;0.10;0.10;;;;;;;15.53;78.15;99733.19;7365896;19;20010;-61
2023/09/28 01:13:05;;;;;;;0.10;0.10;;;;;;;15.51;78.49;99736.84;7362820;19;20077;-61
2023/09/28 01:15:32;;;;;;;0.10;0.10;;;;;;;15.50;78.42;99757.03;7366931;19;20021;-61
2023/09/28 01:17:58;;;;;;;0.10;0.10;;;;;;;15.48;78.43;99765.97;7360842;19;20015;-61
2023/09/28 01:20:34;;;;;;;0.03;0.03;;;;;;;15.47;78.43;99769.53;7371274;19;20081;-61
2023/09/28 01:23:00;;;;;;;0.10;0.10;;;;;;;15.45;78.71;99785.41;7364892;19;20023;-61
2023/09/28 01:25:26;;;;;;;0.10;0.10;;;;;;;15.46;78.34;99794.13;7365103;19;20402;-62
2023/09/28 01:27:54;;;;;;;0.10;0.10;;;;;;;15.44;78.58;99801.28;7359496;19;20017;-61
2023/09/28 01:30:20;;;;;;;0.10;0.10;;;;;;;15.42;78.36;99816.31;7367365;19;20103;-62
2023/09/28 01:32:46;;;;;;;0.10;0.10;;;;;;;15.38;78.41;99804.28;7365940;19;20077;-60
2023/09/28 01:35:11;;;;;;;0.10;0.10;;;;;;;15.45;78.70;99826.66;7363519;19;20098;-61
2023/09/28 01:37:52;;;;;;;0.10;0.10;;;;;;;15.50;78.84;99824.59;7364783;19;20010;-61
2023/09/28 01:40:17;;;;;;;0.10;0.10;;;;;;;15.50;79.12;99835.13;7365307;19;20006;-61
2023/09/28 01:42:43;;;;;;;0.10;0.10;;;;;;;15.51;78.74;99834.19;7364128;19;20021;-61
2023/09/28 01:45:09;;;;;;;0.10;0.10;;;;;;;15.53;78.81;99840.22;7358249;19;20021;-61
2023/09/28 01:47:34;;;;;;;0.10;0.10;;;;;;;15.53;79.09;99848.13;7368664;19;20011;-61
2023/09/28 01:50:00;;;;;;;0.10;0.10;;;;;;;15.56;78.90;99834.78;7369597;19;20043;-62
2023/09/28 01:52:26;;;;;;;0.10;0.10;;;;;;;15.56;78.39;99825.13;7364234;19;20416;-61
2023/09/28 01:54:51;;;;;;;0.10;0.10;;;;;;;15.50;78.35;99819.34;7365051;19;20819;-61
2023/09/28 01:57:17;;;;;;;0.10;0.10;;;;;;;15.55;78.37;99819.94;7365380;19;20002;-61
2023/09/28 01:59:43;;;;;;;0.10;0.10;;;;;;;15.55;78.01;99833.09;7357163;19;20913;-61
2023/09/28 02:02:08;;;;;;;0.10;0.10;;;;;;;15.51;77.85;99837.69;7365386;19;20872;-61
2023/09/28 02:04:37;;;;;;;0.10;0.10;;;;;;;15.45;78.08;99827.50;7362293;19;20394;-61
2023/09/28 02:07:02;;;;;;;0.20;0.20;;;;;;;15.34;78.17;99815.91;7371362;19;21050;-61
2023/09/28 02:09:29;;;;;;;0.10;0.10;;;;;;;15.48;78.37;99840.50;7373785;19;20007;-61
2023/09/28 02:11:54;;;;;;;0.08;0.08;;;;;;;15.48;78.04;99868.59;7367024;19;21079;-61
2023/09/28 02:14:19;;;;;;;0.10;0.10;;;;;;;15.42;78.33;99858.41;7370190;19;20014;-60
2023/09/28 02:16:45;;;;;;;0.10;0.10;;;;;;;15.36;78.44;99862.25;7366735;19;20024;-61
2023/09/28 02:19:11;;;;;;;0.10;0.10;;;;;;;15.45;78.47;99890.66;7368631;19;20692;-61
2023/09/28 02:21:36;;;;;;;0.00;0.00;;;;;;;15.49;78.18;99891.31;7365130;19;20014;-61
2023/09/28 02:24:02;;;;;;;0.10;0.10;;;;;;;15.48;78.15;99894.91;7350387;19;20010;-61
2023/09/28 02:26:27;;;;;;;0.10;0.10;;;;;;;15.42;77.81;99893.47;7365247;19;20074;-60
2023/09/28 02:28:52;;;;;;;0.10;0.10;;;;;;;15.47;77.66;99906.38;7368186;19;20010;-61
2023/09/28 02:31:18;;;;;;;0.10;0.10;;;;;;;15.46;78.34;99910.78;7366925;19;20043;-61
2023/09/28 02:33:43;;;;;;;0.10;0.10;;;;;;;15.30;77.48;99889.72;7366837;19;20015;-61
2023/09/28 02:36:09;;;;;;;0.10;0.10;;;;;;;15.41;77.90;99915.44;7361538;19;20011;-61
2023/09/28 02:38:35;;;;;;;0.10;0.10;;;;;;;15.42;77.94;99925.03;7363844;19;20043;-62
2023/09/28 02:41:01;;;;;;;0.10;0.10;;;;;;;15.41;78.29;99930.34;7339241;19;20006;-60
2023/09/28 02:43:26;;;;;;;0.10;0.10;;;;;;;15.42;78.67;99932.09;7366045;19;20017;-61
2023/09/28 02:45:52;;;;;;;0.10;0.10;;;;;;;15.41;78.36;99941.75;7367252;19;20010;-62
2023/09/28 02:48:17;;;;;;;0.10;0.10;;;;;;;15.46;78.44;99944.09;7362397;19;20035;-61
2023/09/28 02:50:43;;;;;;;0.10;0.10;;;;;;;15.42;78.36;99929.44;7366571;19;20003;-61
2023/09/28 02:53:09;;;;;;;0.10;0.10;;;;;;;15.46;78.65;99938.84;7364364;19;20530;-62
2023/09/28 02:55:36;;;;;;;0.10;0.10;;;;;;;15.49;78.27;99938.69;7366024;19;20025;-62
2023/09/28 02:58:02;;;;;;;0.10;0.10;;;;;;;15.50;78.23;99950.91;7368236;19;20031;-61
2023/09/28 03:00:28;;;;;;;0.10;0.10;;;;;;;15.51;77.99;99957.88;7372495;19;20014;-61
2023/09/28 03:02:56;;;;;;;0.10;0.10;;;;;;;15.49;77.98;99971.13;7371722;19;20050;-60
2023/09/28 03:05:22;;;;;;;0.10;0.10;;;;;;;15.52;78.10;99970.13;7365845;19;20035;-61
2023/09/28 03:07:48;;;;;;;0.10;0.10;;;;;;;15.52;78.29;99986.75;7361238;19;20498;-60
2023/09/28 03:10:14;;;;;;;0.17;0.17;;;;;;;15.50;78.29;99985.13;7369251;19;20047;-61
2023/09/28 03:12:39;;;;;;;0.10;0.10;;;;;;;15.52;77.90;99976.22;7219984;19;2813133;-61
2023/09/28 03:15:10;;;;;;;0.10;0.10;;;;;;;15.52;77.82;99975.38;7367946;19;20054;-60
2023/09/28 03:17:36;;;;;;;0.10;0.10;;;;;;;15.53;78.18;99982.31;7361436;19;20344;-61
2023/09/28 03:20:09;;;;;;;0.10;0.10;;;;;;;15.50;77.96;99988.59;7342864;19;21133;-60
2023/09/28 03:22:34;;;;;;;0.10;0.10;;;;;;;15.53;78.04;99985.81;7368782;19;20014;-61
2023/09/28 03:25:01;;;;;;;0.10;0.10;;;;;;;15.55;78.14;99990.97;7376019;19;20043;-61
2023/09/28 03:27:26;;;;;;;0.10;0.10;;;;;;;15.55;78.10;99990.97;7368574;19;20042;-61
2023/09/28 03:29:53;;;;;;;0.10;0.10;;;;;;;15.53;78.17;100009.50;7371919;19;20011;-61
2023/09/28 03:32:18;;;;;;;0.10;0.10;;;;;;;15.54;78.09;100020.88;7364080;19;20010;-61
2023/09/28 03:34:44;;;;;;;0.10;0.10;;;;;;;15.53;78.59;100027.06;7370560;19;20037;-61
2023/09/28 03:37:10;;;;;;;0.10;0.10;;;;;;;15.54;78.21;100015.59;7365948;19;20019;-61
2023/09/28 03:39:35;;;;;;;0.10;0.10;;;;;;;15.54;78.62;100021.72;7365489;19;20143;-61
2023/09/28 03:42:00;;;;;;;0.10;0.10;;;;;;;15.39;78.47;100000.63;7367802;19;20050;-61
2023/09/28 03:44:26;;;;;;;0.17;0.17;;;;;;;15.55;78.36;100027.81;7368641;19;20127;-61
2023/09/28 03:46:52;;;;;;;0.10;0.10;;;;;;;15.48;78.20;100000.16;7367462;19;20002;-61
2023/09/28 03:49:17;;;;;;;0.10;0.10;;;;;;;15.60;78.14;100027.56;7366119;19;20718;-61
2023/09/28 03:51:43;;;;;;;0.10;0.10;;;;;;;15.58;78.41;100025.03;7367568;19;20013;-61
2023/09/28 03:54:08;;;;;;;0.10;0.10;;;;;;;15.58;77.88;100023.25;7367126;19;20021;-61
2023/09/28 03:56:33;;;;;;;0.10;0.10;;;;;;;15.58;78.21;100035.56;7368803;19;20003;-60
2023/09/28 03:58:59;;;;;;;0.10;0.10;;;;;;;15.59;78.02;100045.16;7370624;19;20443;-61
2023/09/28 04:01:26;;;;;;;0.10;0.10;;;;;;;15.53;77.78;100029.69;7376567;19;20017;-61
2023/09/28 04:03:53;;;;;;;0.10;0.10;;;;;;;15.55;78.17;100039.19;7368050;19;20030;-61
2023/09/28 04:06:18;;;;;;;0.10;0.10;;;;;;;15.54;78.12;100053.28;7367492;19;20352;-61
2023/09/28 04:08:44;;;;;;;0.10;0.10;;;;;;;15.57;77.69;100052.28;7360803;19;20015;-61
2023/09/28 04:11:09;;;;;;;0.10;0.10;;;;;;;15.59;77.68;100060.94;7366471;19;20058;-61
2023/09/28 04:13:34;;;;;;;0.10;0.10;;;;;;;15.58;77.70;100061.88;7355825;19;20688;-61
2023/09/28 04:16:00;;;;;;;0.10;0.10;;;;;;;15.57;77.70;100057.56;7368249;19;20098;-61
2023/09/28 04:18:25;;;;;;;0.10;0.10;;;;;;;15.57;77.79;100060.19;7367384;19;20011;-61
2023/09/28 04:20:51;;;;;;;0.10;0.10;;;;;;;15.56;77.44;100058.47;7365837;19;20017;-60
2023/09/28 04:23:16;;;;;;;0.20;0.20;;;;;;;15.54;78.03;100063.81;7367425;19;20010;-61
2023/09/28 04:25:42;;;;;;;0.10;0.10;;;;;;;15.55;77.52;100057.63;7364152;19;20007;-60
2023/09/28 04:28:07;;;;;;;0.10;0.10;;;;;;;15.54;77.75;100057.72;7361402;19;20007;-61
2023/09/28 04:30:34;;;;;;;0.10;0.10;;;;;;;15.54;77.49;100057.72;7367494;19;20036;-61
2023/09/28 04:32:59;;;;;;;0.10;0.10;;;;;;;15.55;77.84;100062.88;7368757;19;20354;-61
2023/09/28 04:35:25;;;;;;;0.10;0.10;;;;;;;15.54;77.39;100078.75;7372740;19;20010;-61
2023/09/28 04:37:50;;;;;;;0.10;0.10;;;;;;;15.35;77.59;100035.94;7375559;19;20021;-61
2023/09/28 04:40:16;;;;;;;0.10;0.10;;;;;;;15.52;77.62;100075.38;7369501;19;19998;-61
2023/09/28 04:42:42;;;;;;;0.10;0.10;;;;;;;15.52;77.55;100070.09;7366586;19;20605;-61
2023/09/28 04:45:08;;;;;;;0.10;0.10;;;;;;;15.35;77.62;100054.34;7361793;19;20367;-61
2023/09/28 04:47:33;;;;;;;0.10;0.10;;;;;;;15.50;77.66;100079.84;7367994;19;20007;-61
2023/09/28 04:50:00;;;;;;;0.10;0.10;;;;;;;15.49;77.46;100075.53;7365786;19;20519;-61
2023/09/28 04:52:26;;;;;;;0.10;0.10;;;;;;;15.48;76.71;100064.16;7366657;19;20734;-61
2023/09/28 04:54:52;;;;;;;0.10;0.10;;;;;;;15.46;76.80;100075.66;7371007;19;20006;-61
2023/09/28 04:57:20;;;;;;;0.10;0.10;;;;;;;15.43;76.96;100081.97;7364886;19;20027;-60
2023/09/28 04:59:45;;;;;;;0.10;0.10;;;;;;;15.41;77.04;100077.69;7364885;19;20462;-61
2023/09/28 05:02:11;;;;;;;0.10;0.10;;;;;;;15.39;76.70;100072.53;7362908;19;20034;-61
2023/09/28 05:04:37;;;;;;;0.10;0.10;;;;;;;15.35;77.06;100083.28;7367336;19;20010;-60
2023/09/28 05:07:04;;;;;;;0.10;0.10;;;;;;;15.31;76.81;100083.47;7364032;19;20451;-61
2023/09/28 05:09:30;;;;;;;0.10;0.10;;;;;;;15.31;76.89;100066.84;7366037;19;20015;-61
2023/09/28 05:12:00;;;;;;;0.13;0.13;;;;;;;15.27;76.52;100074.03;7358699;19;20039;-61
2023/09/28 05:14:26;;;;;;;0.10;0.10;;;;;;;15.23;76.96;100072.47;7363293;19;20489;-61
2023/09/28 05:16:53;;;;;;;0.10;0.10;;;;;;;15.22;76.79;100068.16;7361805;19;20069;-61
2023/09/28 05:19:19;;;;;;;;;;;;;;;15.22;76.66;100065.53;7368326;19;20010;-61
2023/09/28 05:21:44;;;;;;;0.10;0.10;;;;;;;15.15;76.42;100056.22;7359403;19;19943;-60
2023/09/28 05:24:10;;;;;;;0.10;0.10;;;;;;;15.06;76.19;100067.25;7373371;19;20002;-61
2023/09/28 05:26:35;;;;;;;0.10;0.10;;;;;;;15.09;76.53;100077.59;7363444;19;20027;-61
2023/09/28 05:29:01;;;;;;;0.10;0.10;;;;;;;15.05;76.45;100076.03;7365137;19;20482;-61
2023/09/28 05:31:26;;;;;;;0.10;0.10;;;;;;;15.00;76.06;100067.53;7363479;19;20035;-60
2023/09/28 05:33:51;;;;;;;0.10;0.10;;;;;;;14.98;77.11;100069.41;7359904;19;20717;-61
2023/09/28 05:36:17;;;;;;;0.10;0.10;;;;;;;14.96;77.33;100071.28;7364183;19;20010;-61
2023/09/28 05:38:42;;;;;;;0.10;0.10;;;;;;;14.94;77.06;100073.13;7363613;19;20046;-61
2023/09/28 05:41:07;;;;;;;0.10;0.10;;;;;;;14.77;76.77;100045.91;7361461;19;20007;-61
2023/09/28 05:43:33;;;;;;;0.10;0.10;;;;;;;14.91;77.16;100078.53;7362249;19;20702;-61
2023/09/28 05:45:58;;;;;;;0.10;0.10;;;;;;;14.88;76.90;100086.56;7364196;19;20034;-60
2023/09/28 05:48:24;;;;;;;0.10;0.10;;;;;;;14.86;76.34;100091.91;7342780;19;20352;-60
2023/09/28 05:50:50;;;;;;;0.10;0.10;;;;;;;14.84;76.30;100109.53;7367315;19;20631;-60
2023/09/28 05:53:15;;;;;;;0.10;0.10;;;;;;;14.84;76.48;100116.56;7360802;19;20014;-61
2023/09/28 05:55:40;;;;;;;0.03;0.03;;;;;;;14.82;76.77;100121.91;7364669;19;20014;-60
2023/09/28 05:58:06;;;;;;;0.10;0.10;;;;;;;14.81;76.74;100119.38;7359274;19;20715;-61
2023/09/28 06:00:31;;;;;;;0.10;0.10;;;;;;;14.74;76.69;100105.66;7364611;19;20011;-61
2023/09/28 06:02:57;;;;;;;0.10;0.10;;;;;;;14.76;76.57;100104.66;7361773;19;20384;-61
2023/09/28 06:05:23;;;;;;;0.10;0.10;;;;;;;14.74;76.65;100106.50;7363453;19;20014;-61
2023/09/28 06:07:48;;;;;;;0.10;0.10;;;;;;;14.77;76.69;100111.63;7363459;19;20061;-61
2023/09/28 06:10:14;;;;;;;0.08;0.08;;;;;;;14.67;76.82;100086.72;7362567;19;20379;-60
2023/09/28 06:12:39;;;;;;;0.10;0.10;;;;;;;14.70;76.62;100081.31;7362151;19;20038;-60
2023/09/28 06:15:07;;;;;;;0.10;0.10;;;;;;;14.73;76.50;100096.91;7361839;19;20583;-61
2023/09/28 06:17:33;;;;;;;0.10;0.10;;;;;;;14.73;76.57;100096.91;7368660;19;20014;-60
2023/09/28 06:19:58;;;;;;;0.10;0.10;;;;;;;14.74;75.70;100103.03;7361241;19;20043;-61
2023/09/28 06:22:24;;;;;;;0.10;0.10;;;;;;;14.59;76.29;100070.47;7363776;19;20026;-60
2023/09/28 06:24:49;;;;;;;0.10;0.10;;;;;;;14.75;76.11;100105.59;7362879;19;20485;-61
2023/09/28 06:27:15;;;;;;;0.10;0.10;;;;;;;14.73;75.71;100115.31;7358711;19;20011;-61
2023/09/28 06:29:40;;;;;;;0.10;0.10;;;;;;;14.73;76.33;100115.31;7362052;19;20034;-61
2023/09/28 06:32:06;;;;;;;0.10;0.10;;;;;;;14.67;75.87;100107.75;7360001;19;20027;-60
2023/09/28 06:34:31;;;;;;;0.10;0.10;;;;;;;14.70;75.93;100136.50;7358107;19;20348;-61
2023/09/28 06:36:56;;;;;;;0.10;0.10;;;;;;;14.71;75.75;100119.81;7360316;19;20050;-61
2023/09/28 06:39:22;;;;;;;0.10;0.10;;;;;;;14.64;75.84;100113.13;7358835;19;20006;-61
2023/09/28 06:41:48;;;;;;;0.10;0.10;;;;;;;14.73;75.47;100141.59;7365545;19;20014;-61
2023/09/28 06:44:14;;;;;;;0.10;0.10;;;;;;;14.72;75.24;100125.91;7366612;19;20010;-61
2023/09/28 06:46:40;;;;;;;0.10;0.10;;;;;;;14.64;75.50;100117.53;7355951;19;21870;-61
2023/09/28 06:49:08;;;;;;;0.10;0.10;;;;;;;14.70;75.36;100112.84;7356819;19;20028;-61
2023/09/28 06:51:34;;;;;;;;;;;;;;;14.76;76.01;100103.81;7365043;19;20010;-61
2023/09/28 06:54:00;;;;;;;0.10;0.10;;;;;;;14.63;75.59;100082.53;7371859;19;19923;-60
2023/09/28 06:56:26;;;;;;;0.10;0.10;;;;;;;14.69;74.62;100097.16;7377928;19;20014;-61
2023/09/28 06:58:52;;;;;;;0.10;0.10;;;;;;;14.71;75.36;100108.44;7370184;19;20351;-61
2023/09/28 07:01:17;;;;;;;0.10;0.10;;;;;;;14.72;75.10;100121.50;7364511;19;20015;-61
2023/09/28 07:03:43;;;;;;;0.10;0.10;;;;;;;14.72;75.51;100120.66;7367836;19;20041;-60
2023/09/28 07:06:09;;;;;;;0.03;0.03;;;;;;;14.71;75.29;100125.06;7374538;19;20119;-61
2023/09/28 07:08:34;;;;;;;0.10;0.10;;;;;;;14.14;75.03;100029.75;7369938;19;20037;-60
2023/09/28 07:11:01;;;;;;;0.10;0.10;;;;;;;14.71;75.66;100117.19;7367008;19;20025;-61
2023/09/28 07:13:27;;;;;;;0.08;0.08;;;;;;;14.74;75.25;100124.91;7363634;19;20018;-60
2023/09/28 07:15:52;;;;;;;0.10;0.10;;;;;;;14.75;74.89;100123.13;7365174;19;20032;-60
2023/09/28 07:18:18;;;;;;;0.10;0.10;;;;;;;14.73;75.19;100107.44;7367245;19;20006;-60
2023/09/28 07:20:44;;;;;;;0.10;0.10;;;;;;;14.75;75.14;100110.84;7369781;19;20014;-60
2023/09/28 07:23:09;;;;;;;0.10;0.10;;;;;;;14.77;75.59;100102.88;7364460;19;20021;-60
2023/09/28 07:25:35;;;;;;;0.03;0.03;;;;;;;14.63;75.64;100090.41;7370354;19;20832;-61
2023/09/28 07:28:00;;;;;;;0.10;0.10;;;;;;;14.75;74.82;100100.34;7353601;19;20011;-60
2023/09/28 07:30:26;;;;;;;0.10;0.10;;;;;;;14.81;75.15;100108.84;7374209;19;20045;-60
2023/09/28 07:32:52;;;;;;;0.10;0.10;;;;;;;14.82;75.38;100105.28;7369005;19;20011;-61
2023/09/28 07:35:19;;;;;;;0.10;0.10;;;;;;;14.82;74.89;100100.88;7366150;19;20010;-61
2023/09/28 07:37:44;;;;;;;0.10;0.10;;;;;;;14.83;74.08;100101.72;7368172;19;20002;-61
2023/09/28 07:40:12;;;;;;;0.10;0.10;;;;;;;14.85;74.21;100099.84;7365822;19;20035;-60
2023/09/28 07:42:43;;;;;;;0.10;0.10;;;;;;;14.79;74.87;100080.84;7367792;19;20125;-61
2023/09/28 07:45:11;;;;;;;0.10;0.10;;;;;;;14.74;74.76;100068.84;7367956;19;20634;-61
2023/09/28 07:47:36;;;;;;;0.10;0.10;;;;;;;14.88;74.55;100108.44;7364076;19;20423;-61
2023/09/28 07:50:03;;;;;;;0.10;0.10;;;;;;;14.89;74.10;100106.66;7334461;19;20058;-60
2023/09/28 07:52:29;;;;;;;0.10;0.10;;;;;;;14.92;74.51;100114.41;7359454;19;20497;-60
2023/09/28 07:54:56;;;;;;;0.10;0.10;;;;;;;14.82;75.10;100095.63;7368926;19;20010;-61
2023/09/28 07:57:22;;;;;;;0.10;0.10;;;;;;;14.96;74.94;100121.22;7360145;19;20837;-60
2023/09/28 07:59:47;;;;;;;0.10;0.10;;;;;;;14.95;74.76;100111.63;7369000;19;20015;-60
2023/09/28 08:02:13;;;;;;;0.10;0.10;;;;;;;14.97;74.28;100104.53;7363782;19;20072;-60
2023/09/28 08:04:38;;;;;;;0.10;0.10;;;;;;;14.99;73.90;100102.66;7366436;19;20021;-60
2023/09/28 08:07:04;;;;;;;0.10;0.10;;;;;;;14.98;74.35;100100.97;7353295;19;20007;-61
2023/09/28 08:09:30;;;;;;;0.10;0.10;;;;;;;15.01;73.20;100099.03;7361248;19;20439;-61
2023/09/28 08:11:55;;;;;;;0.10;0.10;;;;;;;15.02;74.19;100106.00;7365888;19;20018;-60
2023/09/28 08:14:21;;;;;;;0.10;0.10;;;;;;;15.05;73.92;100116.38;7365676;19;20022;-60
2023/09/28 08:16:47;;;;;;;0.10;0.10;;;;;;;15.08;73.91;100123.22;7369150;19;20046;-61
2023/09/28 08:19:13;;;;;;;0.10;0.10;;;;;;;15.04;73.04;100113.78;7367498;19;20423;-60
2023/09/28 08:21:39;;;;;;;0.10;0.10;;;;;;;15.10;72.46;100126.63;7366383;19;20775;-60
2023/09/28 08:24:05;;;;;;;0.10;0.10;;;;;;;15.11;73.27;100123.09;7365504;19;20013;-61
2023/09/28 08:26:32;;;;;;;0.10;0.10;;;;;;;14.99;73.26;100086.88;7372207;19;20477;-60
2023/09/28 08:29:00;;;;;;;0.20;0.20;;;;;;;15.15;72.33;100113.25;7367035;19;20018;-61
2023/09/28 08:31:27;;;;;;;0.10;0.10;;;;;;;15.15;72.92;100108.84;7363203;19;20014;-61
2023/09/28 08:33:52;;;;;;;0.10;0.10;;;;;;;15.16;72.51;100109.72;7368543;19;20465;-60
2023/09/28 08:36:18;;;;;;;0.10;0.10;;;;;;;15.16;72.72;100118.44;7365929;19;20086;-60
2023/09/28 08:38:44;;;;;;;0.10;0.10;;;;;;;15.19;72.81;100126.16;7370115;19;20491;-60
2023/09/28 08:41:11;;;;;;;0.10;0.10;;;;;;;15.20;72.62;100116.50;7368229;19;20021;-60
2023/09/28 08:43:43;;;;;;;0.10;0.10;;;;;;;15.20;73.31;100117.34;7368298;19;20046;-60
2023/09/28 08:46:14;;;;;;;0.10;0.10;;;;;;;15.25;73.22;100131.09;7364361;19;20729;-60
2023/09/28 08:48:45;;;;;;;0.10;0.10;;;;;;;15.26;73.54;100130.19;7363609;19;20090;-60
2023/09/28 08:51:11;;;;;;;0.10;0.10;;;;;;;15.26;72.92;100132.84;7368085;19;20655;-60
2023/09/28 08:53:41;;;;;;;0.10;0.10;;;;;;;15.31;73.49;100146.59;7360110;19;20006;-61
2023/09/28 08:56:07;;;;;;;0.10;0.10;;;;;;;15.31;72.97;100136.06;7360571;19;20086;-60
2023/09/28 08:58:36;;;;;;;0.03;0.03;;;;;;;15.36;73.28;100124.44;7361751;19;20058;-61
2023/09/28 09:01:03;;;;;;;0.10;0.10;;;;;;;15.35;73.36;100120.97;7365132;19;20031;-60
2023/09/28 09:03:31;;;;;;;0.10;0.10;;;;;;;15.28;72.43;100104.66;7359769;19;20443;-61
2023/09/28 09:05:57;;;;;;;0.10;0.10;;;;;;;15.39;72.90;100121.66;7364944;19;20027;-60
2023/09/28 09:08:25;;;;;;;0.10;0.10;;;;;;;15.44;72.69;100128.38;7365483;19;20762;-60
2023/09/28 09:10:51;;;;;;;0.10;0.10;;;;;;;15.47;72.41;100138.75;7368455;19;20018;-60
2023/09/28 09:13:18;;;;;;;0.10;0.10;;;;;;;15.51;72.89;100149.97;7360808;19;20650;-60
2023/09/28 09:15:43;;;;;;;0.10;0.10;;;;;;;15.43;72.71;100107.44;7366070;19;20101;-60
2023/09/28 09:18:16;;;;;;;0.10;0.10;;;;;;;15.61;73.18;100132.75;7371489;19;20031;-60
2023/09/28 09:20:41;;;;;;;0.10;0.10;;;;;;;15.64;72.25;100137.06;7369051;19;20105;-61
2023/09/28 09:23:11;;;;;;;0.10;0.10;;;;;;;15.73;72.59;100147.09;7360356;19;20090;-60
2023/09/28 09:25:41;;;;;;;0.10;0.10;;;;;;;15.79;72.71;100126.56;7366219;19;20014;-61
2023/09/28 09:28:07;;;;;;;0.10;0.10;;;;;;;15.80;72.82;100123.00;7363930;19;20094;-60
2023/09/28 09:30:37;;;;;;;0.10;0.10;;;;;;;15.91;73.15;100118.94;7363421;19;20103;-60
2023/09/28 09:33:07;;;;;;;0.10;0.10;;;;;;;15.98;72.77;100115.91;7364463;19;20085;-61
2023/09/28 09:35:33;;;;;;;0.10;0.10;;;;;;;16.08;72.62;100132.06;7359940;19;20562;-61
2023/09/28 09:37:59;;;;;;;0.10;0.10;;;;;;;16.14;72.09;100142.25;7366201;19;20014;-60
2023/09/28 09:40:25;;;;;;;0.20;0.20;;;;;;;16.19;72.06;100128.81;7366701;19;20021;-61
2023/09/28 09:42:51;;;;;;;0.10;0.10;;;;;;;16.26;71.61;100136.28;7367394;19;20015;-60
2023/09/28 09:45:19;;;;;;;0.10;0.10;;;;;;;16.33;71.91;100136.81;7364867;19;20006;-61
2023/09/28 09:47:46;;;;;;;;;;;;;;;16.45;73.47;100130.00;7366399;19;20011;-60
2023/09/28 09:50:14;;;;;;;0.10;0.10;;;;;;;16.42;70.44;100135.44;7359468;19;20644;-61
2023/09/28 09:52:42;;;;;;;0.10;0.10;;;;;;;16.30;70.14;100122.03;7364064;19;20021;-61
2023/09/28 09:55:08;;;;;;;0.10;0.10;;;;;;;16.43;70.58;100150.34;7364298;19;20014;-60
2023/09/28 09:57:37;;;;;;;0.10;0.10;;;;;;;16.46;70.93;100153.63;7365441;19;20017;-60
2023/09/28 10:00:07;;;;;;;0.10;0.10;;;;;;;16.49;70.24;100157.91;7359594;19;20007;-61
2023/09/28 10:02:39;;;;;;;0.10;0.10;;;;;;;16.53;71.16;100143.63;7363959;19;20010;-60
2023/09/28 10:05:08;;;;;;;0.10;0.10;;;;;;;16.56;70.84;100128.47;7362179;19;20006;-60
2023/09/28 10:07:36;;;;;;;0.10;0.10;;;;;;;16.57;69.94;100129.31;7363781;19;20367;-61
2023/09/28 10:10:03;;;;;;;0.10;0.10;;;;;;;16.63;70.16;100134.25;7360341;19;20013;-60
2023/09/28 10:12:30;;;;;;;0.10;0.10;;;;;;;16.64;70.20;100114.88;7357488;19;20018;-61
2023/09/28 10:14:56;;;;;;;0.15;0.15;;;;;;;16.75;70.20;100123.03;7368295;19;21392;-61
2023/09/28 10:17:26;;;;;;;0.10;0.10;;;;;;;16.83;70.16;100131.38;7362789;19;20018;-61
2023/09/28 10:19:56;;;;;;;0.10;0.10;;;;;;;16.90;70.02;100117.81;7364144;19;20422;-61
2023/09/28 10:22:22;;;;;;;0.10;0.10;;;;;;;16.93;69.88;100099.16;7362065;19;20018;-60
2023/09/28 10:24:48;;;;;;;0.10;0.10;;;;;;;16.97;70.39;100090.13;7363111;19;20009;-61
2023/09/28 10:27:13;;;;;;;0.10;0.10;;;;;;;17.01;70.00;100086.38;7367078;19;20018;-60
2023/09/28 10:29:40;;;;;;;0.10;0.10;;;;;;;17.02;69.97;100085.44;7367409;19;20011;-61
2023/09/28 10:32:27;;;;;;;0.10;0.10;;;;;;;17.23;71.29;100088.56;7372120;19;20792;-61
2023/09/28 10:35:28;;;;;;;0.10;0.10;;;;;;;17.33;71.16;100084.44;7372645;19;20038;-61
2023/09/28 10:38:22;;;;;;;0.10;0.10;;;;;;;17.47;71.00;100065.13;7373817;19;20358;-61
2023/09/28 10:41:08;;;;;;;0.10;0.10;;;;;;;17.58;70.84;100076.72;7370861;19;20739;-61
2023/09/28 10:43:42;;;;;;;0.10;0.10;;;;;;;17.63;69.53;100079.09;7364476;19;20585;-61
2023/09/28 10:46:08;;;;;;;0.10;0.10;;;;;;;17.57;68.45;100042.50;7371934;19;20018;-60
2023/09/28 10:48:46;;;;;;;0.10;0.10;;;;;;;17.79;69.91;100069.31;7362764;19;20043;-61
2023/09/28 10:51:14;;;;;;;0.10;0.10;;;;;;;17.79;67.41;100053.47;7372987;19;20010;-61
2023/09/28 10:53:39;;;;;;;0.10;0.10;;;;;;;17.78;68.01;100061.47;7367910;19;20018;-61
2023/09/28 10:56:06;;;;;;;0.10;0.10;;;;;;;17.71;67.11;100045.13;7365487;19;20583;-61
2023/09/28 10:58:33;;;;;;;0.10;0.10;;;;;;;17.83;67.49;100070.78;7368722;19;20014;-60
2023/09/28 11:01:04;;;;;;;0.10;0.10;;;;;;;17.81;67.67;100064.78;7374548;19;20651;-61
2023/09/28 11:03:33;;;;;;;0.10;0.10;;;;;;;17.79;67.41;100071.97;7368970;19;20109;-60
2023/09/28 11:06:03;;;;;;;0.10;0.10;;;;;;;17.73;67.35;100059.13;7366513;19;20010;-61
2023/09/28 11:08:30;;;;;;;0.10;0.10;;;;;;;17.69;67.81;100062.88;7365381;19;20018;-61
2023/09/28 11:11:01;;;;;;;0.10;0.10;;;;;;;17.74;66.51;100081.97;7366319;19;20623;-61
2023/09/28 11:13:27;;;;;;;0.10;0.10;;;;;;;17.70;67.21;100067.22;7360996;19;20014;-61
2023/09/28 11:15:53;;;;;;;0.10;0.10;;;;;;;17.68;66.98;100066.44;7366460;19;20018;-61
2023/09/28 11:18:20;;;;;;;0.10;0.10;;;;;;;17.63;66.84;100055.31;7365944;19;20017;-61
2023/09/28 11:20:46;;;;;;;0.10;0.10;;;;;;;17.50;66.57;100038.56;7365085;19;20022;-60
2023/09/28 11:23:11;;;;;;;0.10;0.10;;;;;;;17.57;66.51;100058.34;7346647;19;20384;-60
2023/09/28 11:25:39;;;;;;;0.10;0.10;;;;;;;17.53;66.53;100051.56;7359983;19;20069;-61
2023/09/28 11:28:08;;;;;;;0.10;0.10;;;;;;;17.52;68.03;100039.31;7364692;19;20073;-60